• Join FlightAware (Why Join?)
  • Login
  • US Flag 
12:38PM EDT


 

Airport Tracker/Info


-or-


 

Live Flight TrackerFlight Track Log ✈ AM214 ✈ 28-Jun-2013 ✈ YSSY / SYD - YMDG / DGE

Flight Track Log - Related Links

Times and Time Zones

All times are in EDT time to prevent confusion due to time zone crossing. See the AM214 flight status page for this flight to view local times or setup timezone preferences in your user account.

Time Position Orientation Groundspeed Altitude Reporting Facility
EDT Latitude Longitude Course Direction KTS MPH feet Rate Location/Type
07:39PM -33.9360 151.1900 59° Northeast 15 17  Level FlightAware
07:43PM -33.9360 151.1890 270° West 13 15  Level FlightAware
07:43PM -33.9360 151.1870 270° West 18 21 60 Level FlightAware
07:44PM -33.9370 151.1830 253° West 20 23 60 Level FlightAware
07:45PM -33.9370 151.1770 270° West 20 23 60 Level FlightAware
07:46PM -33.9290 151.1750 348° North 20 23 60 Level FlightAware
07:47PM -33.9290 151.1730 270° West 8 9 120 Level FlightAware
07:49PM -33.8572 151.0876 315° West  Level FlightAware Approximate
07:49PM -33.9320 151.1720 315° West 57 66  Level FlightAware
07:49PM -33.9500 151.1770 315° West 134 154 840 Level FlightAware
07:49PM -33.9532 151.1775 315° West 121 139 500 2,400 Climbing Aus ATC (RADAR)
07:49PM -33.9600 151.1780 175° South 144 166 600 1,020 Climbing FlightAware
07:50PM -33.9760 151.1640 216° Southwest 166 191 1,200 1,500 Climbing FlightAware
07:50PM -33.9920 151.1440 226° Southwest 171 197 2,100 1,800 Climbing FlightAware
07:51PM -34.0080 151.1220 229° Southwest 168 193 3,000 1,800 Climbing FlightAware
07:51PM -34.0090 151.1120 263° West 170 196 3,300 1,800 Climbing FlightAware
07:52PM -34.0090 151.0840 270° West 172 198 4,200 1,320 Climbing FlightAware
07:52PM -34.0080 151.0530 272° West 193 222 4,700 480 Climbing FlightAware
07:53PM -34.0070 151.0240 272° West 214 246 4,700 120 Level FlightAware
07:53PM -34.0050 151.0120 281° West 217 250 4,800  Climbing FlightAware
07:53PM -33.9990 150.9940 292° West 222 255 4,700  Descending FlightAware
07:53PM -33.9870 150.9600 293° West 225 259 4,800 60 Climbing FlightAware
07:54PM -33.9740 150.9240 294° West 229 264 4,800 -120 Level FlightAware
07:54PM -33.9640 150.8960 293° West 228 262 4,700 -180 Descending FlightAware
07:55PM -33.9590 150.8840 297° West 227 261 4,700  Level FlightAware
07:55PM -33.9460 150.8480 294° West 227 261 4,700  Level FlightAware
07:56PM -33.9320 150.8080 293° West 226 260 4,700  Level FlightAware
07:56PM -33.9260 150.7970 303° West 227 261 4,700 720 Level FlightAware
07:56PM -33.9120 150.7870 329° Northwest 220 253 5,000 1,860 Climbing FlightAware
07:57PM -33.8870 150.7720 334° Northwest 180 207 6,100 2,340 Climbing FlightAware
07:57PM -33.8680 150.7650 343° North 148 170 7,200 2,280 Climbing FlightAware
07:57PM -33.8610 150.7650 360° North 145 167 7,500 1,800 Climbing FlightAware
07:57PM -33.8470 150.7650 360° North 145 167 8,100 1,680 Climbing FlightAware
07:58PM -33.8290 150.7660 North 148 170 8,800 1,620 Climbing FlightAware
07:58PM -33.8070 150.7670 North 150 173 9,600 1,680 Climbing FlightAware
07:59PM -33.7770 150.7690 North 160 184 10,800 1,740 Climbing FlightAware
08:00PM -33.7445 150.7702 North 162 186 12,200 1,620 Climbing Aus ATC (RADAR)
08:00PM -33.7370 150.7710 North 162 186 12,300 1,860 Climbing FlightAware
08:01PM -33.7064 150.7721 North 157 181 13,600 1,500 Climbing Aus ATC (RADAR)
08:01PM -33.7070 150.7720 North 162 186 13,300 1,500 Descending FlightAware
08:01PM -33.6802 150.7733 North 156 180 14,500 1,440 Climbing Aus ATC (RADAR)
08:01PM -33.6730 150.7730 North 162 186 14,400 960 Descending FlightAware
08:02PM -33.6410 150.7750 North 164 189 15,400 1,140 Climbing FlightAware
08:03PM -33.6090 150.7760 North 181 208 16,000 1,260 Climbing FlightAware
08:03PM -33.6071 150.7761 North 175 201 16,300  Climbing Aus ATC (RADAR)
08:03PM -33.5910 150.7690 342° North 203 234 16,000 -300 Descending FlightAware
08:04PM -33.5500 150.7230 317° Northwest 227 261 16,000  Level FlightAware
08:05PM -33.5210 150.6880 317° Northwest 231 266 16,000 420 Level FlightAware
08:05PM -33.5183 150.6858 317° Northwest 227 261 16,300  Climbing Aus ATC (RADAR)
08:05PM -33.4850 150.6470 316° Northwest 228 262 16,000  Descending FlightAware
08:06PM -33.4599 150.6182 316° Northwest 233 268 16,300  Climbing Aus ATC (RADAR)
08:06PM -33.4470 150.6030 316° Northwest 236 272 16,000 -300 Descending FlightAware
08:07PM -33.4130 150.5630 316° Northwest 234 269 16,000 180 Level FlightAware
08:08PM -33.3857 150.5327 316° Northwest 232 267 16,300  Climbing Aus ATC (RADAR)
08:08PM -33.3770 150.5220 316° Northwest 232 267 16,000 -360 Descending FlightAware
08:08PM -33.3420 150.4810 316° Northwest 232 267 16,000  Level FlightAware
08:09PM -33.3110 150.4460 317° Northwest 232 267 16,000  Level FlightAware
08:10PM -33.2800 150.4100 316° Northwest 233 268 16,000  Level FlightAware
08:10PM -33.2490 150.3750 317° Northwest 234 269 16,000  Level FlightAware
08:11PM -33.2130 150.3340 316° Northwest 229 264 16,000  Level FlightAware
08:12PM -33.1820 150.2990 316° Northwest 228 262 16,000 360 Level FlightAware
08:12PM -33.1797 150.2960 316° Northwest 231 266 16,300 360 Climbing Aus ATC (RADAR)
08:13PM -33.1486 150.2602 316° Northwest 230 265 16,300 -480 Level Aus ATC (RADAR)
08:13PM -33.1470 150.2580 316° Northwest 227 261 16,000  Descending FlightAware
08:13PM -33.1215 150.2292 316° Northwest 229 264 16,300  Climbing Aus ATC (RADAR)
08:13PM -33.1180 150.2250 316° Northwest 227 261 16,000  Descending FlightAware
08:14PM -33.0864 150.1891 316° Northwest 230 265 16,300  Climbing Aus ATC (RADAR)
08:14PM -33.0810 150.1830 316° Northwest 228 262 16,000 -420 Descending FlightAware
08:15PM -33.0500 150.1470 316° Northwest 227 261 16,000  Level FlightAware
08:15PM -33.0190 150.1120 317° Northwest 226 260 16,000  Level FlightAware
08:16PM -32.9880 150.0760 316° Northwest 225 259 16,000 -300 Level FlightAware
08:17PM -32.9530 150.0370 317° Northwest 244 281 15,600 -960 Descending FlightAware
08:17PM -32.9196 149.9997 317° Northwest 257 296 14,700 -1,740 Descending Aus ATC (RADAR)
08:18PM -32.9140 149.9920 317° Northwest 258 297 14,300 -1,980 Descending FlightAware
08:18PM -32.8790 149.9530 317° Northwest 242 278 13,200 -1,260 Descending FlightAware
08:18PM -32.8761 149.9499 317° Northwest 247 284 13,400 -1,140 Climbing Aus ATC (RADAR)
08:19PM -32.8493 149.9196 317° Northwest 238 274 12,500 -2,040 Descending Aus ATC (RADAR)
08:19PM -32.8430 149.9130 317° Northwest 227 261 12,000 -1,860 Descending FlightAware
08:20PM -32.8160 149.8820 317° Northwest 223 257 11,200 -960 Descending FlightAware
08:20PM -32.8141 149.8797 317° Northwest 224 258 11,400 -1,140 Climbing Aus ATC (RADAR)
08:20PM -32.7889 149.8510 317° Northwest 223 257 10,500 -840 Descending Aus ATC (RADAR)
08:21PM -32.7740 149.8340 317° Northwest 224 258 10,600 60 Climbing FlightAware
08:21PM -32.7520 149.8090 317° Northwest 224 258 10,600 -1,980 Level FlightAware
08:21PM -32.7379 149.7898 317° Northwest 216 249 9,200 -3,000 Descending Aus ATC (RADAR)
08:22PM -32.7162 149.7686 317° Northwest 213 245 8,600 -1,200 Descending Aus ATC (RADAR)
08:23PM -32.6839 149.7327 317° Northwest 213 245 7,700 -1,200 Descending Aus ATC (RADAR)
08:24PM -32.6404 149.6837 317° Northwest 209 241 6,600 -1,080 Descending Aus ATC (RADAR)
08:24PM -32.6145 149.6602 323° Northwest 210 242 6,000 -1,020 Descending Aus ATC (RADAR)
08:26PM -32.5625 149.6111 303° West  Level FlightAware Approximate
08:33PM -32.5625 149.6111 303° West  Level Estimated
08:34PM -32.5625 149.6111 303° West  Level Estimated
08:35PM -32.5625 149.6111 303° West  Level Estimated
08:36PM -32.5625 149.6111 303° West  Level Estimated